createdAt,value
2022-10-14T00:01:58.233Z,30.35
2022-10-14T00:07:03.346Z,35.17
2022-10-14T00:09:35.773Z,32.47
2022-10-14T00:12:06.886Z,34.80
2022-10-14T00:14:39.418Z,36.63
2022-10-14T00:17:10.445Z,34.67
2022-10-14T00:19:42.063Z,32.95
2022-10-14T00:22:12.926Z,36.70
2022-10-14T00:24:44.472Z,33.67
2022-10-14T00:27:15.218Z,34.20
2022-10-14T00:29:46.822Z,38.05
2022-10-14T00:32:19.188Z,37.10
2022-10-14T00:34:49.871Z,36.42
2022-10-14T00:37:22.178Z,36.45
2022-10-14T00:39:56.896Z,28.77
2022-10-14T00:42:30.631Z,35.25
2022-10-14T00:45:16.047Z,43.05
2022-10-14T00:47:47.984Z,34.88
2022-10-14T00:50:21.935Z,37.40
2022-10-14T00:52:56.902Z,31.52
2022-10-14T00:55:28.770Z,35.42
2022-10-14T00:57:59.661Z,29.30
2022-10-14T01:00:30.419Z,28.40
2022-10-14T01:03:01.729Z,34.47
2022-10-14T01:08:30.531Z,35.90
2022-10-14T01:11:20.722Z,29.92
2022-10-14T01:13:59.218Z,35.90
2022-10-14T01:16:49.839Z,39.00
2022-10-14T01:19:32.476Z,36.67
2022-10-14T01:22:22.609Z,40.90
2022-10-14T01:24:58.719Z,35.75
2022-10-14T01:28:00.277Z,42.90
2022-10-14T01:33:15.437Z,38.10
2022-10-14T01:35:58.383Z,46.47
2022-10-14T01:38:34.510Z,42.72
2022-10-14T01:41:13.776Z,53.40
2022-10-14T01:43:48.794Z,41.28
2022-10-14T01:46:22.112Z,33.55
2022-10-14T01:48:58.107Z,42.45
2022-10-14T01:51:44.590Z,45.78
2022-10-14T01:54:22.444Z,50.95
2022-10-14T01:56:55.802Z,43.47
2022-10-14T01:59:29.076Z,38.13
2022-10-14T02:02:00.422Z,34.67
2022-10-14T02:07:17.158Z,43.53
2022-10-14T02:10:08.584Z,37.25
2022-10-14T02:13:20.462Z,39.20
2022-10-14T02:16:16.058Z,40.78
2022-10-14T02:18:55.804Z,35.97
2022-10-14T02:21:39.992Z,34.47
2022-10-14T02:24:27.791Z,61.55
2022-10-14T02:27:03.253Z,48.33
2022-10-14T02:29:37.229Z,53.67
2022-10-14T02:32:11.165Z,57.03
2022-10-14T02:34:44.184Z,71.72
2022-10-14T02:37:17.052Z,39.78
2022-10-14T02:40:10.671Z,38.47
2022-10-14T02:42:41.669Z,41.08
2022-10-14T02:45:15.991Z,49.40
2022-10-14T02:47:48.935Z,56.08
2022-10-14T02:50:21.633Z,43.15
2022-10-14T02:52:55.047Z,57.70
2022-10-14T02:55:26.109Z,60.92
2022-10-14T02:57:57.156Z,59.70
2022-10-14T03:00:33.517Z,55.67
2022-10-14T03:03:05.611Z,71.07
2022-10-14T03:05:36.671Z,74.25
2022-10-14T05:43:34.705Z,797.63
2022-10-14T05:46:14.669Z,663.90
2022-10-14T05:48:50.851Z,528.28
2022-10-14T05:51:25.263Z,729.92
2022-10-14T05:54:02.980Z,927.97
2022-10-14T05:56:33.991Z,596.47
2022-10-14T05:59:05.368Z,658.53
2022-10-14T06:01:39.205Z,782.55
2022-10-14T06:04:10.853Z,777.55
2022-10-14T06:06:42.679Z,850.17
2022-10-14T06:09:14.062Z,924.78
2022-10-14T06:11:45.435Z,676.80
2022-10-14T06:14:16.671Z,784.80
2022-10-14T06:16:52.150Z,868.00
2022-10-14T06:19:23.150Z,942.15
2022-10-14T06:21:53.850Z,1027.57
2022-10-14T06:24:24.542Z,820.50
2022-10-14T06:26:55.121Z,826.00
2022-10-14T06:29:28.983Z,901.70
2022-10-14T06:31:59.756Z,1011.00
2022-10-14T06:34:30.549Z,15.20
2022-10-14T06:37:02.549Z,15.05
2022-10-14T06:39:33.531Z,15.40
2022-10-14T06:42:09.496Z,16.52
2022-10-14T06:44:43.248Z,16.98
2022-10-14T06:47:15.931Z,19.80
2022-10-14T06:49:46.582Z,19.05
2022-10-14T06:52:17.338Z,23.40
2022-10-14T06:54:48.493Z,18.77
2022-10-14T06:59:50.255Z,18.60
2022-10-14T07:02:21.423Z,17.83
2022-10-14T07:07:22.767Z,789.78
2022-10-14T07:09:53.860Z,1047.30
2022-10-14T07:12:24.889Z,1051.82
2022-10-14T07:14:55.823Z,1038.68
2022-10-14T07:17:26.514Z,1045.85
2022-10-14T07:19:57.321Z,1039.57
2022-10-14T07:22:28.074Z,1027.03
2022-10-14T07:24:58.799Z,1059.50
2022-10-14T07:27:31.406Z,1037.68
2022-10-14T07:30:04.370Z,1041.35
2022-10-14T07:32:38.597Z,1050.80
2022-10-14T07:35:09.844Z,1047.00
2022-10-14T07:37:40.974Z,1046.22
2022-10-14T07:40:12.574Z,1043.20
2022-10-14T07:42:43.597Z,1050.68
2022-10-14T07:45:18.825Z,1053.97
2022-10-14T07:47:53.778Z,1046.10
2022-10-14T07:50:24.720Z,1031.35
2022-10-14T07:53:00.884Z,1045.38
2022-10-14T07:55:32.115Z,1036.05
2022-10-14T07:58:02.944Z,1050.90
2022-10-14T08:00:33.773Z,1040.03
2022-10-14T08:03:04.945Z,1039.80
2022-10-14T08:05:38.689Z,1011.50
2022-10-14T08:08:12.844Z,918.03
2022-10-14T08:10:44.734Z,958.60
2022-10-14T08:13:15.523Z,975.08
2022-10-14T08:15:46.136Z,963.47
2022-10-14T08:18:16.796Z,958.22
2022-10-14T08:20:47.737Z,939.30
2022-10-14T08:23:19.911Z,958.40
2022-10-14T08:25:52.643Z,956.83
2022-10-14T08:28:23.641Z,866.85
2022-10-14T08:30:56.158Z,841.75
2022-10-14T08:33:27.156Z,839.25
2022-10-14T08:35:58.136Z,820.03
2022-10-14T08:38:29.289Z,845.22
2022-10-14T08:41:17.337Z,871.15
2022-10-14T08:44:14.245Z,880.88
2022-10-14T08:46:55.281Z,844.75
2022-10-14T08:49:58.356Z,879.03
2022-10-14T08:52:48.731Z,871.22
2022-10-14T08:55:42.476Z,804.80
2022-10-14T08:58:31.361Z,529.38
2022-10-14T09:01:12.627Z,795.95
2022-10-14T09:03:45.265Z,930.40
2022-10-14T09:06:28.829Z,951.92
2022-10-14T09:09:14.487Z,930.97
2022-10-14T09:11:48.869Z,930.28
2022-10-14T09:14:24.259Z,858.72
2022-10-14T09:17:03.796Z,829.08
2022-10-14T09:19:37.624Z,613.65
2022-10-14T09:22:16.906Z,145.85
2022-10-14T09:24:51.053Z,44.13
2022-10-14T09:27:26.360Z,78.63
2022-10-14T09:30:07.215Z,261.25
2022-10-14T09:32:46.801Z,288.27
2022-10-14T09:35:26.066Z,370.33
2022-10-14T09:37:56.838Z,350.75
2022-10-14T09:40:39.555Z,434.87
2022-10-14T09:43:13.183Z,214.02
2022-10-14T09:45:55.999Z,168.38
2022-10-14T09:48:34.351Z,208.85
2022-10-14T09:51:08.118Z,338.40
2022-10-14T09:53:59.887Z,321.33
2022-10-14T09:56:45.357Z,340.10
2022-10-14T09:59:24.554Z,337.98
2022-10-14T10:02:01.282Z,251.18
2022-10-14T10:04:34.984Z,241.32
2022-10-14T10:07:29.888Z,275.25
2022-10-14T10:10:03.079Z,229.20
2022-10-14T10:12:38.485Z,283.42
2022-10-14T10:15:10.287Z,260.15
2022-10-14T10:17:43.371Z,274.80
2022-10-14T10:20:35.899Z,367.52
2022-10-14T10:23:28.215Z,357.60
2022-10-14T10:26:00.054Z,279.73
2022-10-14T10:28:35.872Z,217.57
2022-10-14T10:31:15.897Z,162.05
2022-10-14T10:33:53.154Z,195.68
2022-10-14T10:36:53.802Z,265.45
2022-10-14T10:39:49.133Z,298.05
2022-10-14T10:42:38.435Z,217.23
2022-10-14T10:45:40.521Z,37.40
2022-10-14T10:48:37.206Z,127.63
2022-10-14T10:51:41.816Z,101.97
2022-10-14T10:54:21.418Z,141.75
2022-10-14T10:56:57.608Z,89.55
2022-10-14T10:59:44.037Z,35.33
2022-10-14T11:02:51.523Z,108.03
2022-10-14T11:05:52.600Z,110.88
2022-10-14T11:09:27.666Z,77.35
2022-10-14T11:12:23.504Z,83.82
2022-10-14T11:15:34.034Z,87.82
2022-10-14T11:18:17.135Z,308.65
2022-10-14T11:21:07.599Z,163.73
2022-10-14T11:24:02.372Z,166.05
2022-10-14T11:27:11.340Z,117.43
2022-10-14T11:30:17.103Z,178.85
2022-10-14T11:33:02.687Z,274.63
2022-10-14T11:35:42.165Z,418.08
2022-10-14T11:38:54.163Z,297.10
2022-10-14T11:41:48.695Z,414.70
2022-10-14T11:44:38.511Z,130.48
2022-10-14T11:47:25.292Z,139.63
2022-10-14T11:50:32.477Z,149.05
2022-10-14T11:53:17.039Z,162.75
2022-10-14T11:55:58.487Z,270.80
2022-10-14T11:58:32.596Z,556.85
2022-10-14T12:01:07.089Z,170.75
2022-10-14T12:04:08.260Z,131.30
2022-10-14T12:06:45.811Z,145.05
2022-10-14T12:09:26.108Z,144.13
2022-10-14T12:12:02.089Z,149.50
2022-10-14T12:14:58.025Z,172.52
2022-10-14T12:17:41.516Z,564.38
2022-10-14T12:20:50.535Z,269.20
2022-10-14T12:23:32.365Z,190.90
2022-10-14T12:26:13.869Z,493.25
2022-10-14T12:31:31.842Z,143.00
2022-10-14T12:34:18.065Z,154.85
2022-10-14T12:36:53.251Z,181.10
2022-10-14T12:39:25.018Z,234.90
2022-10-14T12:42:04.545Z,696.85
2022-10-14T12:44:54.659Z,216.10
2022-10-14T12:47:39.106Z,232.13
2022-10-14T12:50:34.346Z,212.98
2022-10-14T12:53:09.671Z,251.60
2022-10-14T12:55:53.107Z,406.48
2022-10-14T12:58:36.756Z,145.35
2022-10-14T13:01:21.756Z,396.73
2022-10-14T13:04:04.094Z,128.18
2022-10-14T13:06:43.037Z,130.35
2022-10-14T13:09:17.871Z,148.98
2022-10-14T13:11:59.778Z,141.52
2022-10-14T13:15:03.866Z,133.73
2022-10-14T13:17:49.846Z,215.00
2022-10-14T13:20:38.675Z,326.10
2022-10-14T13:23:52.741Z,221.05
2022-10-14T13:26:41.824Z,254.55
2022-10-14T13:29:25.836Z,211.82
2022-10-14T13:32:03.435Z,175.30
2022-10-14T13:35:12.909Z,300.25
2022-10-14T13:37:51.252Z,686.60
2022-10-14T13:40:37.228Z,181.32
2022-10-14T13:43:16.965Z,219.50
2022-10-14T13:46:02.181Z,662.10
2022-10-14T13:48:37.345Z,170.25
2022-10-14T13:51:32.070Z,196.73
2022-10-14T13:54:18.996Z,240.57
2022-10-14T14:02:56.747Z,190.80
2022-10-14T14:05:35.056Z,138.75
2022-10-14T14:08:36.594Z,523.42
2022-10-14T14:11:16.298Z,76.47
2022-10-14T14:14:00.307Z,76.85
2022-10-14T14:19:24.463Z,47.40
2022-10-14T14:22:08.729Z,283.38
2022-10-14T14:24:39.647Z,50.35
2022-10-14T14:27:18.966Z,50.10
2022-10-14T14:29:52.932Z,332.00
2022-10-14T14:32:34.095Z,493.20
2022-10-14T14:35:08.039Z,79.50
2022-10-14T14:37:56.071Z,65.10
2022-10-14T14:40:29.864Z,33.97
2022-10-14T14:43:07.136Z,33.10
2022-10-14T14:45:45.496Z,34.78
2022-10-14T14:48:18.518Z,36.72
2022-10-14T14:50:51.533Z,39.72
2022-10-14T14:53:32.766Z,238.07
2022-10-14T14:58:42.759Z,40.97
2022-10-14T15:01:29.837Z,39.88
2022-10-14T15:04:12.621Z,31.13
2022-10-14T15:06:52.042Z,40.65
2022-10-14T15:09:53.400Z,37.65
2022-10-14T15:12:28.027Z,31.23
2022-10-14T15:15:03.560Z,27.60
2022-10-14T15:17:37.035Z,32.35
2022-10-14T15:20:07.923Z,33.92
2022-10-14T15:22:41.454Z,33.42
2022-10-14T15:25:15.421Z,42.47
2022-10-14T15:27:50.210Z,74.10
2022-10-14T15:30:27.344Z,126.88
2022-10-14T15:33:01.924Z,197.38
2022-10-14T15:35:33.415Z,180.77
2022-10-14T15:38:05.846Z,220.70
2022-10-14T15:40:36.915Z,211.25
2022-10-14T15:43:17.400Z,269.83
2022-10-14T15:46:14.592Z,211.02
2022-10-14T15:49:06.934Z,264.52
2022-10-14T15:51:37.747Z,306.92
2022-10-14T15:54:16.000Z,391.08
2022-10-14T15:56:46.846Z,367.50
2022-10-14T15:59:18.972Z,370.98
2022-10-14T16:01:50.533Z,298.42
2022-10-14T16:04:27.307Z,37.42
2022-10-14T16:07:00.391Z,357.85
2022-10-14T16:09:31.295Z,323.48
2022-10-14T16:12:03.390Z,430.52
2022-10-14T16:14:34.185Z,748.03
2022-10-14T16:17:06.370Z,845.03
2022-10-14T16:19:37.373Z,36.72
2022-10-14T16:22:09.863Z,572.53
2022-10-14T16:24:41.787Z,646.20
2022-10-14T16:27:12.499Z,519.35
2022-10-14T16:29:43.265Z,839.17
2022-10-14T16:32:16.562Z,891.13
2022-10-14T16:34:47.303Z,876.72
2022-10-14T16:37:18.407Z,872.37
2022-10-14T16:39:49.203Z,855.58
2022-10-14T16:42:21.621Z,894.38
2022-10-14T16:44:52.294Z,876.28
2022-10-14T16:47:26.688Z,875.40
2022-10-14T16:49:59.921Z,889.00
2022-10-14T16:52:30.926Z,878.88
2022-10-14T16:55:01.657Z,885.72
2022-10-14T16:57:32.713Z,875.23
2022-10-14T17:00:03.642Z,875.47
2022-10-14T17:02:34.555Z,899.70
2022-10-14T17:05:05.419Z,866.05
2022-10-14T17:07:36.654Z,867.00
2022-10-14T17:12:39.008Z,877.78
2022-10-14T17:15:10.072Z,874.50
2022-10-14T17:17:42.765Z,888.20
2022-10-14T17:20:13.687Z,870.53
2022-10-14T17:22:45.680Z,891.53
2022-10-14T17:25:16.658Z,870.38
2022-10-14T17:27:47.681Z,898.20
2022-10-14T17:30:18.707Z,861.35
2022-10-14T17:32:49.553Z,864.00
2022-10-14T17:35:20.381Z,862.13
2022-10-14T17:37:51.537Z,889.45
2022-10-14T17:40:22.150Z,49.05
2022-10-14T17:42:53.125Z,53.70
2022-10-14T17:45:25.478Z,38.30
2022-10-14T17:47:59.190Z,34.00
2022-10-14T17:50:30.679Z,68.25
2022-10-14T17:53:01.578Z,34.58
2022-10-14T17:55:32.634Z,877.05
2022-10-14T17:58:03.489Z,883.25
2022-10-14T18:00:34.941Z,374.10
2022-10-14T18:05:38.434Z,33.17
2022-10-14T18:08:09.834Z,25.73
2022-10-14T18:10:41.029Z,24.67
2022-10-14T18:15:42.194Z,32.83
2022-10-14T18:18:14.234Z,28.53
2022-10-14T18:20:45.056Z,26.48
2022-10-14T18:23:16.409Z,24.55
2022-10-14T18:28:18.125Z,30.23
2022-10-14T18:30:49.040Z,30.30
2022-10-14T18:33:19.815Z,39.85
2022-10-14T18:35:52.648Z,28.98
2022-10-14T18:38:23.289Z,29.80
2022-10-14T18:41:07.113Z,33.87
2022-10-14T18:43:39.135Z,28.70
